createdAt,value
2023-03-10T00:00:38.003Z,0.04
2023-03-10T00:04:23.073Z,0.04
2023-03-10T00:07:51.204Z,0.05
2023-03-10T00:11:18.922Z,0.05
2023-03-10T00:14:46.151Z,0.06
2023-03-10T00:18:13.150Z,0.07
2023-03-10T00:21:40.191Z,0.08
2023-03-10T00:25:09.193Z,0.10
2023-03-10T00:28:36.201Z,0.10
2023-03-10T00:32:03.813Z,0.11
2023-03-10T00:35:30.877Z,0.12
2023-03-10T00:39:03.838Z,0.14
2023-03-10T00:42:30.866Z,0.15
2023-03-10T00:45:58.305Z,0.15
2023-03-10T00:49:25.546Z,0.15
2023-03-10T00:52:52.913Z,0.14
2023-03-10T00:56:22.262Z,0.13
2023-03-10T00:59:53.556Z,0.12
2023-03-10T01:03:20.903Z,0.11
2023-03-10T01:06:47.971Z,0.09
2023-03-10T01:10:15.794Z,0.10
2023-03-10T01:13:43.231Z,0.12
2023-03-10T01:17:10.567Z,0.13
2023-03-10T01:20:38.022Z,0.15
2023-03-10T01:24:06.569Z,0.17
2023-03-10T01:27:33.571Z,0.20
2023-03-10T01:31:00.625Z,0.21
2023-03-10T01:34:27.912Z,0.21
2023-03-10T01:37:54.941Z,0.22
2023-03-10T01:41:23.485Z,0.22
2023-03-10T01:45:10.455Z,0.21
2023-03-10T01:48:38.767Z,0.21
2023-03-10T01:52:11.685Z,0.20
2023-03-10T01:55:43.481Z,0.20
2023-03-10T01:59:11.497Z,0.21
2023-03-10T02:02:41.677Z,0.22
2023-03-10T02:06:12.927Z,0.25
2023-03-10T02:09:44.572Z,0.27
2023-03-10T02:13:11.615Z,0.28
2023-03-10T02:16:38.810Z,0.28
2023-03-10T02:20:28.583Z,0.29
2023-03-10T02:24:05.091Z,0.31
2023-03-10T02:27:36.628Z,0.32
2023-03-10T02:31:04.955Z,0.32
2023-03-10T02:34:34.704Z,0.32
2023-03-10T02:38:02.145Z,0.33
2023-03-10T02:41:32.918Z,0.34
2023-03-10T02:45:00.609Z,0.35
2023-03-10T02:48:30.983Z,0.36
2023-03-10T02:52:00.108Z,0.38
2023-03-10T02:55:27.498Z,0.39
2023-03-10T02:58:55.076Z,0.40
2023-03-10T03:02:22.257Z,0.40
2023-03-10T03:05:50.212Z,0.39
2023-03-10T03:09:17.701Z,0.38
2023-03-10T03:12:45.860Z,0.39
2023-03-10T03:16:13.658Z,0.40
2023-03-10T03:19:42.006Z,0.41
2023-03-10T03:23:09.866Z,0.43
2023-03-10T03:26:37.674Z,0.44
2023-03-10T03:30:16.069Z,0.45
2023-03-10T03:33:43.397Z,0.47
2023-03-10T03:37:11.071Z,0.48
2023-03-10T03:40:39.974Z,0.48
2023-03-10T03:44:08.534Z,0.47
2023-03-10T03:47:36.130Z,0.46
2023-03-10T03:51:03.728Z,0.47
2023-03-10T03:54:36.455Z,0.49
2023-03-10T03:58:03.776Z,0.50
2023-03-10T04:01:30.926Z,0.51
2023-03-10T04:04:58.571Z,0.53
2023-03-10T04:08:26.131Z,0.56
2023-03-10T04:11:54.234Z,0.59
2023-03-10T04:15:22.435Z,0.62
2023-03-10T04:18:50.004Z,0.65
2023-03-10T04:22:17.343Z,0.68
2023-03-10T04:25:45.692Z,0.71
2023-03-10T04:29:13.639Z,0.74
2023-03-10T04:32:41.335Z,0.77
2023-03-10T04:36:10.458Z,0.80
2023-03-10T04:39:38.768Z,0.82
2023-03-10T04:43:06.832Z,0.85
2023-03-10T04:46:34.642Z,0.88
2023-03-10T04:50:02.204Z,0.91
2023-03-10T04:53:32.583Z,0.93
2023-03-10T04:56:58.448Z,0.93
2023-03-10T05:00:26.593Z,0.95
2023-03-10T05:03:53.996Z,0.96
2023-03-10T05:07:21.517Z,0.97
2023-03-10T05:10:50.589Z,0.98
2023-03-10T05:14:18.981Z,0.98
2023-03-10T05:17:48.237Z,1.00
2023-03-10T05:21:18.452Z,1.02
2023-03-10T05:24:46.095Z,1.06
2023-03-10T05:28:13.870Z,1.08
2023-03-10T05:31:42.592Z,1.11
2023-03-10T05:35:14.441Z,1.15
2023-03-10T05:38:42.476Z,1.17
2023-03-10T05:42:12.552Z,1.20
2023-03-10T05:45:41.012Z,1.24
2023-03-10T05:49:08.457Z,1.29
2023-03-10T05:52:40.033Z,1.33
2023-03-10T05:56:13.601Z,1.39
2023-03-10T05:59:42.036Z,1.46
2023-03-10T06:03:09.828Z,1.53
2023-03-10T06:06:37.265Z,1.59
2023-03-10T06:10:05.731Z,1.65
2023-03-10T06:13:33.432Z,1.74
2023-03-10T06:17:00.983Z,1.81
2023-03-10T06:20:28.324Z,1.88
2023-03-10T06:23:55.518Z,1.96
2023-03-10T06:27:22.932Z,2.03
2023-03-10T06:30:57.033Z,2.11
2023-03-10T06:34:24.232Z,2.20
2023-03-10T06:37:51.465Z,2.29
2023-03-10T06:41:18.853Z,2.39
2023-03-10T06:44:48.751Z,2.47
2023-03-10T06:48:16.976Z,2.53
2023-03-10T06:51:47.209Z,2.60
2023-03-10T06:55:16.114Z,2.66
2023-03-10T06:58:44.733Z,2.73
2023-03-10T07:02:13.588Z,2.80
2023-03-10T07:05:40.877Z,2.89
2023-03-10T07:09:08.488Z,2.97
2023-03-10T07:12:35.675Z,3.08
2023-03-10T07:16:02.812Z,3.19
2023-03-10T07:19:29.799Z,3.32
2023-03-10T07:22:56.782Z,3.47
2023-03-10T07:26:24.056Z,3.61
2023-03-10T07:29:51.241Z,3.75
2023-03-10T07:33:19.173Z,3.88
2023-03-10T07:36:46.240Z,3.98
2023-03-10T07:40:14.835Z,4.09
2023-03-10T07:43:42.313Z,4.27
2023-03-10T07:47:09.725Z,4.47
2023-03-10T07:50:36.755Z,4.65
2023-03-10T07:54:03.792Z,4.83
2023-03-10T07:57:30.816Z,5.00
2023-03-10T08:00:58.979Z,5.14
2023-03-10T08:04:26.894Z,5.23
2023-03-10T08:07:54.287Z,5.32
2023-03-10T08:11:22.321Z,5.41
2023-03-10T08:14:51.206Z,5.52
2023-03-10T08:18:18.267Z,5.65
2023-03-10T08:21:46.423Z,5.83
2023-03-10T08:25:13.825Z,6.05
2023-03-10T08:28:41.143Z,6.28
2023-03-10T08:32:09.525Z,6.49
2023-03-10T08:35:37.327Z,6.69
2023-03-10T08:39:05.894Z,6.91
2023-03-10T08:42:33.776Z,7.19
2023-03-10T08:46:00.909Z,7.44
2023-03-10T08:49:28.119Z,7.64
2023-03-10T08:52:55.601Z,7.82
2023-03-10T08:56:24.288Z,7.97
2023-03-10T08:59:51.835Z,8.16
2023-03-10T09:03:18.950Z,8.37
2023-03-10T09:06:46.373Z,8.56
2023-03-10T09:10:13.913Z,8.64
2023-03-10T09:13:41.088Z,8.63
2023-03-10T09:17:09.664Z,8.64
2023-03-10T09:20:39.856Z,8.70
2023-03-10T09:24:07.706Z,8.81
2023-03-10T09:27:34.889Z,8.98
2023-03-10T09:31:02.032Z,9.14
2023-03-10T09:34:30.078Z,9.24
2023-03-10T09:37:57.101Z,9.36
2023-03-10T09:41:46.971Z,9.47
2023-03-10T09:45:26.374Z,9.55
2023-03-10T09:49:05.848Z,9.57
2023-03-10T09:52:45.320Z,9.60
2023-03-10T09:56:17.848Z,9.57
2023-03-10T09:59:48.152Z,9.60
2023-03-10T10:03:21.156Z,9.71
2023-03-10T10:06:51.054Z,9.88
2023-03-10T10:10:23.256Z,10.13
2023-03-10T10:13:51.496Z,10.33
2023-03-10T10:17:26.488Z,10.46
2023-03-10T10:21:00.490Z,10.56
2023-03-10T10:24:27.690Z,10.61
2023-03-10T10:27:58.107Z,10.68
2023-03-10T10:31:28.487Z,10.76
2023-03-10T10:35:16.341Z,10.90
2023-03-10T10:38:52.084Z,11.08
2023-03-10T10:42:24.257Z,11.26
2023-03-10T10:45:56.258Z,11.40
2023-03-10T10:49:26.704Z,11.47
2023-03-10T10:53:14.591Z,11.46
2023-03-10T10:56:54.855Z,11.49
2023-03-10T11:00:29.662Z,11.57
2023-03-10T11:04:08.064Z,11.63
2023-03-10T11:07:35.153Z,11.67
2023-03-10T11:11:09.048Z,11.72
2023-03-10T11:14:45.299Z,11.83
2023-03-10T11:18:18.538Z,12.01
2023-03-10T11:21:50.571Z,12.14
2023-03-10T11:25:26.978Z,12.18
2023-03-10T11:28:57.986Z,12.16
2023-03-10T11:32:34.964Z,12.23
2023-03-10T11:36:14.832Z,12.38
2023-03-10T11:39:55.210Z,12.53
2023-03-10T11:43:33.640Z,12.67
2023-03-10T11:47:07.422Z,12.81
2023-03-10T11:50:43.522Z,12.95
2023-03-10T11:54:19.808Z,13.03
2023-03-10T11:57:50.028Z,13.05
2023-03-10T12:01:20.619Z,13.08
2023-03-10T12:04:52.681Z,13.17
2023-03-10T12:08:22.186Z,13.28
2023-03-10T12:11:49.244Z,13.40
2023-03-10T12:15:24.514Z,13.48
2023-03-10T12:18:51.887Z,13.52
2023-03-10T12:22:37.296Z,13.51
2023-03-10T12:26:04.416Z,13.44
2023-03-10T12:29:43.692Z,13.39
2023-03-10T12:33:52.408Z,13.40
2023-03-10T12:37:25.338Z,13.46
2023-03-10T12:40:53.310Z,13.50
2023-03-10T12:44:58.495Z,13.53
2023-03-10T12:48:26.105Z,13.57
2023-03-10T12:51:59.921Z,13.58
2023-03-10T12:55:28.180Z,13.59
2023-03-10T12:59:05.204Z,13.55
2023-03-10T13:02:44.895Z,13.50
2023-03-10T13:06:24.408Z,13.50
2023-03-10T13:09:54.062Z,13.56
2023-03-10T13:13:21.254Z,13.65
2023-03-10T13:16:57.161Z,13.75
2023-03-10T13:20:25.505Z,13.74
2023-03-10T13:23:52.739Z,13.66
2023-03-10T13:27:24.035Z,13.60
2023-03-10T13:30:52.403Z,13.55
2023-03-10T13:34:22.860Z,13.52
2023-03-10T13:38:06.558Z,13.49
2023-03-10T13:41:37.475Z,13.43
2023-03-10T13:45:14.524Z,13.40
2023-03-10T13:48:42.478Z,13.36
2023-03-10T13:52:16.095Z,13.30
2023-03-10T13:55:43.448Z,13.23
2023-03-10T13:59:17.092Z,13.10
2023-03-10T14:02:45.998Z,12.94
2023-03-10T14:06:17.084Z,12.79
2023-03-10T14:09:44.200Z,12.68
2023-03-10T14:13:44.702Z,12.58
2023-03-10T14:17:30.666Z,12.46
2023-03-10T14:20:57.722Z,12.37
2023-03-10T14:24:27.303Z,12.31
2023-03-10T14:27:58.250Z,12.24
2023-03-10T14:31:26.774Z,12.11
2023-03-10T14:34:54.030Z,11.97
2023-03-10T14:38:21.223Z,11.81
2023-03-10T14:41:48.636Z,11.60
2023-03-10T14:45:27.532Z,11.44
2023-03-10T14:48:54.742Z,11.33
2023-03-10T14:52:21.859Z,11.30
2023-03-10T14:55:51.815Z,11.31
2023-03-10T14:59:19.742Z,11.33
2023-03-10T15:02:47.934Z,11.32
2023-03-10T15:06:18.544Z,11.33
2023-03-10T15:09:46.648Z,11.33
2023-03-10T15:13:15.072Z,11.33
2023-03-10T15:16:42.832Z,11.32
2023-03-10T15:20:16.440Z,11.29
2023-03-10T15:23:43.943Z,11.29
2023-03-10T15:27:13.603Z,11.26
2023-03-10T15:30:41.079Z,11.19
2023-03-10T15:34:08.243Z,11.13
2023-03-10T15:37:35.379Z,11.06
2023-03-10T15:41:05.863Z,10.98
2023-03-10T15:44:32.982Z,10.90
2023-03-10T15:48:00.455Z,10.82
2023-03-10T15:51:27.767Z,10.75
2023-03-10T15:54:54.989Z,10.70
2023-03-10T15:58:22.248Z,10.64
2023-03-10T16:01:49.557Z,10.59
2023-03-10T16:05:17.423Z,10.52
2023-03-10T16:08:44.865Z,10.44
2023-03-10T16:12:12.126Z,10.38
2023-03-10T16:15:41.727Z,10.32
2023-03-10T16:19:08.728Z,10.30
2023-03-10T16:22:40.645Z,10.28
2023-03-10T16:26:10.488Z,10.24
2023-03-10T16:29:35.961Z,10.20
2023-03-10T16:33:02.980Z,10.16
2023-03-10T16:36:30.683Z,10.10
2023-03-10T16:39:58.675Z,10.03
2023-03-10T16:43:28.351Z,9.94
2023-03-10T16:46:55.370Z,9.82
2023-03-10T16:50:22.651Z,9.66
2023-03-10T16:53:50.333Z,9.39
2023-03-10T16:57:18.108Z,9.07
2023-03-10T17:00:45.148Z,8.75
2023-03-10T17:04:12.725Z,8.49
2023-03-10T17:07:53.270Z,8.31
2023-03-10T17:11:26.627Z,8.14
2023-03-10T17:14:56.521Z,7.99
2023-03-10T17:18:24.700Z,7.88
2023-03-10T17:21:54.184Z,7.77
2023-03-10T17:25:22.544Z,7.69
2023-03-10T17:28:52.440Z,7.64
2023-03-10T17:32:22.628Z,7.62
2023-03-10T17:35:50.931Z,7.60
2023-03-10T17:39:22.301Z,7.59
2023-03-10T17:42:50.230Z,7.54
2023-03-10T17:46:20.085Z,7.51
2023-03-10T17:49:47.976Z,7.49
2023-03-10T17:53:15.595Z,7.45
2023-03-10T17:56:42.824Z,7.41
2023-03-10T18:00:13.436Z,7.38
2023-03-10T18:03:41.629Z,7.34
2023-03-10T18:07:09.727Z,7.30
2023-03-10T18:10:38.399Z,7.24
2023-03-10T18:14:06.889Z,7.18
2023-03-10T18:17:34.212Z,7.16
2023-03-10T18:21:02.234Z,7.15
2023-03-10T18:24:29.799Z,7.14
2023-03-10T18:27:57.355Z,7.14
2023-03-10T18:31:26.769Z,7.12
2023-03-10T18:34:54.635Z,7.10
2023-03-10T18:38:22.274Z,7.08
2023-03-10T18:41:50.077Z,7.05
2023-03-10T18:45:17.994Z,7.03
2023-03-10T18:48:45.872Z,6.99
2023-03-10T18:52:16.063Z,6.97
2023-03-10T18:55:43.445Z,6.95
2023-03-10T18:59:11.367Z,6.92
2023-03-10T19:02:39.226Z,6.88
2023-03-10T19:06:09.068Z,6.86
2023-03-10T19:09:36.493Z,6.86
2023-03-10T19:13:04.682Z,6.87
2023-03-10T19:16:32.565Z,6.90
2023-03-10T19:20:01.262Z,6.93
2023-03-10T19:23:29.792Z,6.95
2023-03-10T19:26:57.870Z,6.98
2023-03-10T19:30:26.399Z,7.00
2023-03-10T19:33:54.297Z,6.98
2023-03-10T19:37:22.264Z,6.98
2023-03-10T19:40:50.343Z,7.01
2023-03-10T19:44:18.127Z,7.04
2023-03-10T19:47:46.683Z,7.06
2023-03-10T19:51:22.040Z,7.06
2023-03-10T19:54:52.190Z,7.07
2023-03-10T19:58:19.767Z,7.08
2023-03-10T20:01:49.125Z,7.08
2023-03-10T20:05:18.251Z,7.06
2023-03-10T20:08:46.238Z,7.01
2023-03-10T20:12:14.001Z,6.96
2023-03-10T20:15:44.142Z,6.91
2023-03-10T20:19:12.144Z,6.89
2023-03-10T20:22:41.689Z,6.87
2023-03-10T20:26:11.245Z,6.87
2023-03-10T20:29:38.439Z,6.88
2023-03-10T20:33:05.862Z,6.89
2023-03-10T20:36:33.427Z,6.90
2023-03-10T20:40:01.226Z,6.89
2023-03-10T20:43:28.830Z,6.85
2023-03-10T20:46:55.880Z,6.82
2023-03-10T20:50:23.219Z,6.78
2023-03-10T20:53:52.035Z,6.75
2023-03-10T20:57:19.108Z,6.72
2023-03-10T21:00:49.151Z,6.71
2023-03-10T21:04:16.780Z,6.70
2023-03-10T21:07:44.391Z,6.69
2023-03-10T21:11:11.663Z,6.67
2023-03-10T21:14:39.209Z,6.63
2023-03-10T21:18:06.413Z,6.61
2023-03-10T21:21:34.599Z,6.60
2023-03-10T21:25:01.858Z,6.59
2023-03-10T21:28:29.032Z,6.58
2023-03-10T21:31:56.339Z,6.57
2023-03-10T21:35:23.487Z,6.55
2023-03-10T21:38:51.698Z,6.54
2023-03-10T21:42:18.924Z,6.54
2023-03-10T21:45:45.977Z,6.56
2023-03-10T21:49:12.999Z,6.57
2023-03-10T21:52:39.990Z,6.58
2023-03-10T21:56:08.341Z,6.60
2023-03-10T21:59:35.532Z,6.63
2023-03-10T22:03:03.088Z,6.66
2023-03-10T22:06:30.054Z,6.68
2023-03-10T22:09:57.203Z,6.71
2023-03-10T22:13:24.271Z,6.72
2023-03-10T22:16:51.528Z,6.73
2023-03-10T22:20:20.859Z,6.74
2023-03-10T22:23:47.960Z,6.75
2023-03-10T22:27:15.276Z,6.76
2023-03-10T22:30:42.649Z,6.76
2023-03-10T22:34:09.665Z,6.75
2023-03-10T22:37:36.746Z,6.74
2023-03-10T22:41:03.720Z,6.72
2023-03-10T22:44:34.571Z,6.71
2023-03-10T22:48:03.776Z,6.71
2023-03-10T22:51:30.802Z,6.70
2023-03-10T22:54:57.900Z,6.70
2023-03-10T22:58:25.105Z,6.70
2023-03-10T23:01:52.456Z,6.70
2023-03-10T23:05:20.072Z,6.69
2023-03-10T23:08:48.592Z,6.69
2023-03-10T23:12:15.770Z,6.69
2023-03-10T23:15:43.883Z,6.70
2023-03-10T23:19:11.084Z,6.70
2023-03-10T23:22:38.057Z,6.71
2023-03-10T23:26:05.395Z,6.72
2023-03-10T23:29:32.445Z,6.73
2023-03-10T23:33:00.123Z,6.73
2023-03-10T23:36:27.555Z,6.74
2023-03-10T23:39:54.626Z,6.75
2023-03-10T23:43:22.211Z,6.77
2023-03-10T23:46:53.538Z,6.79
2023-03-10T23:50:23.677Z,6.81
2023-03-10T23:53:50.807Z,6.81
2023-03-10T23:57:17.903Z,6.82
